This demonstration page uses our WeatherBlox Daily Observations layout. Learn more.

39.29038, -76.61219

Hourly Observations for July 4, 2017

Temp ( °F °C ) Dew Point ( °F °C ) Humidity (%) Winds ( mph kmh ) Pressure ( in mb ) Visibility ( mi km ) Precip ( " mm )
12:54 am 00:54 undefined 83 28.3 62 16.7 49 49 undefined N/A 30 1016 N/A 0 0
1:54 am 01:54 undefined 82 27.8 62 16.7 51 51 undefined N/A 29.97 1015 N/A 0 0
2:54 am 02:54 undefined 81 27.2 64 17.8 57 57 undefined N/A 29.97 1015 N/A 0 0
3:54 am 03:54 undefined 81 27.2 63 17.2 54 54 undefined N/A 29.97 1015 N/A 0 0
4:54 am 04:54 undefined 81 27.2 64 17.8 57 57 undefined N/A 29.97 1015 N/A 0 0
5:54 am 05:54 undefined 80 26.7 64 17.8 58 58 undefined N/A 30 1016 N/A 0 0
6:54 am 06:54 undefined 82 27.8 66 18.9 58 58 undefined N/A 30 1016 N/A 0 0
7:54 am 07:54 undefined 82 27.8 66 18.9 58 58 undefined N/A 30.03 1017 N/A 0 0
8:54 am 08:54 undefined 82 27.8 66 18.9 58 58 undefined N/A 30.06 1018 N/A 0 0
9:54 am 09:54 undefined 83 28.3 66 18.9 57 57 undefined N/A 30.03 1017 N/A 0 0
10:54 am 10:54 undefined 86 30 68 20 55 55 undefined N/A 30.03 1017 N/A 0 0
11:54 am 11:54 undefined 88 31.1 68 20 52 52 undefined N/A 30.03 1017 N/A 0 0
12:54 pm 12:54 undefined 91 32.8 68 20 47 47 undefined N/A 30.03 1017 N/A 0 0
1:54 pm 13:54 undefined 91 32.8 67 19.4 45 45 undefined N/A 30 1016 N/A 0 0
2:54 pm 14:54 undefined 93 33.9 65 18.3 40 40 undefined N/A 30 1016 N/A 0 0
3:54 pm 15:54 undefined 89 31.7 67 19.4 48 48 undefined N/A 30 1016 N/A 0 0
4:54 pm 16:54 undefined 87 30.6 66 18.9 50 50 undefined N/A 30 1016 N/A 0 0
5:54 pm 17:54 undefined 85 29.4 66 18.9 53 53 undefined N/A 30 1016 N/A 0 0
6:54 pm 18:54 undefined 85 29.4 68 20 57 57 undefined N/A 30.03 1017 N/A 0 0
7:54 pm 19:54 undefined 82 27.8 67 19.4 60 60 undefined N/A 30.03 1017 N/A 0 0
8:54 pm 20:54 undefined 82 27.8 71 21.7 69 69 undefined N/A 30.03 1017 N/A 0 0
9:54 pm 21:54 undefined 80 26.7 70 21.1 71 71 undefined N/A 30.06 1018 N/A 0 0
10:54 pm 22:54 undefined 80 26.7 69 20.6 69 69 undefined N/A 30.06 1018 N/A 0 0
11:54 pm 23:54 undefined 81 27.2 70 21.1 69 69 undefined N/A 30.06 1018 N/A 0 0

Powered by AerisWeather